Terminal Aerodrome Forecast
Issued by NWS Wilmington, OH

Current Version | Previous Version | Graphics & Text | Print | Product List | Glossary On
Versions: 1 2 3 4 5 6 7 8 9 10 11 12 13 14 15 16 17 18 19 20 21
000
FTUS41 KILN 090900 AAA
TAFCVG
TAF AMD
KCVG 090906Z 0909/1012 27004KT P6SM SKC
     FM091500 27009KT P6SM BKN040
     FM100000 31006KT P6SM SCT040
     FM100300 36005KT P6SM SKC
      TEMPO 1009/1012 5SM BR=

USA.gov is the U.S. government's official web portal to all federal, state and local government web resources and services.